Amity, Oregon
Current Conditions -  °F | °C
As of 5:53 PM on Tuesday 21 Oct 2014 (Local Time) from KMMV Reporting Station
Overcast Overcast  
Wind Chill: 60°   Ceiling: 6000
Heat Index: 60°   Visibility: 10mi
Dew Point: 50°   Wind: 10mph
Humidity: 69%   Direction: 190°S
Pressure: 29.93"   Gusts: NA
Location:  45.12°N, 123.21°W
Report Text: KMMV 220053Z AUTO 19009KT 10SM FEW046 OVC060 16/10 A2993 RMK AO2 RAE2355 SLP136 P0000 T01560100 $
Loading
Personal Weather Stations






























Interactive Weather Map New forecast layout! Learn more

10-Day Weather Forecast

Advertisements
Track Severe Weather on mobile